Time;durP1;ratioP1;P1;durP2;ratioP2;P2;SDS_P1;SDS_P2;PMS_P1;PMS_P2;Temp;Humidity;BMP_temperature;BMP_pressure;BME280_temperature;BME280_humidity;BME280_pressure;Samples;Min_cycle;Max_cycle;Signal;HPM_P1;HPM_P2
2023/02/08 00:00:05;;;;;;;16.48;7.43;;;-2.30;99.90;;;;;;5035212;28;20103;-87
2023/02/08 00:02:32;;;;;;;19.73;9.02;;;-2.60;99.90;;;;;;5057671;28;20044;-87
2023/02/08 00:04:58;;;;;;;16.80;7.70;;;-2.60;99.90;;;;;;5071098;28;20037;-85
2023/02/08 00:07:25;;;;;;;16.88;8.18;;;-2.60;99.90;;;;;;5054925;28;20041;-87
2023/02/08 00:09:52;;;;;;;16.52;7.70;;;-2.60;99.90;;;;;;5037813;28;20045;-87
2023/02/08 00:12:19;;;;;;;17.77;8.15;;;-2.60;99.90;;;;;;5060260;28;20049;-86
2023/02/08 00:14:45;;;;;;;16.55;8.25;;;-2.60;99.90;;;;;;5018216;28;20077;-87
2023/02/08 00:17:12;;;;;;;16.42;7.75;;;-2.60;99.90;;;;;;5050965;28;20045;-87
2023/02/08 00:19:39;;;;;;;18.58;7.85;;;-1.40;99.90;;;;;;5033936;28;20631;-87
2023/02/08 00:22:05;;;;;;;16.27;7.80;;;-2.60;99.90;;;;;;5024010;28;20120;-86
2023/02/08 00:24:32;;;;;;;16.60;8.85;;;-2.60;99.90;;;;;;5070430;28;20094;-87
2023/02/08 00:26:59;;;;;;;19.15;9.10;;;-2.60;99.90;;;;;;5038154;28;20106;-87
2023/02/08 00:29:26;;;;;;;20.90;8.65;;;-2.60;99.90;;;;;;5037848;28;20044;-86
2023/02/08 00:31:52;;;;;;;18.70;8.88;;;-2.60;99.90;;;;;;5070518;28;20044;-87
2023/02/08 00:34:19;;;;;;;20.88;8.93;;;-2.60;99.90;;;;;;5054156;28;20068;-86
2023/02/08 00:36:46;;;;;;;18.70;8.52;;;-2.70;99.90;;;;;;5037504;28;20053;-87
2023/02/08 00:39:12;;;;;;;19.60;8.57;;;-2.70;99.90;;;;;;5086707;28;20045;-85
2023/02/08 00:41:39;;;;;;;17.52;8.75;;;-2.10;99.90;;;;;;5071764;28;20049;-86
2023/02/08 00:44:06;;;;;;;19.40;7.85;;;-2.70;99.90;;;;;;5022470;28;20052;-86
2023/02/08 00:46:32;;;;;;;17.08;8.35;;;-2.70;99.90;;;;;;5050861;28;20084;-87
2023/02/08 00:48:59;;;;;;;16.23;7.75;;;-2.70;99.90;;;;;;5049796;28;20067;-86
2023/02/08 00:51:26;;;;;;;18.63;7.43;;;-1.70;99.90;;;;;;5066254;28;20482;-87
2023/02/08 00:53:52;;;;;;;16.88;8.45;;;-2.70;99.90;;;;;;5025194;28;20045;-87
2023/02/08 00:56:19;;;;;;;18.08;8.93;;;-2.70;99.90;;;;;;5049951;28;20041;-87
2023/02/08 00:58:46;;;;;;;20.73;8.45;;;-2.70;99.90;;;;;;5049984;28;20049;-87
2023/02/08 01:01:13;;;;;;;19.02;8.40;;;-2.40;99.90;;;;;;5050075;28;20045;-87
2023/02/08 01:03:41;;;;;;;19.90;8.82;;;-2.70;99.90;;;;;;5033412;28;20091;-87
2023/02/08 01:06:15;;;;;;;17.05;7.80;;;-2.70;99.90;;;;;;5066143;28;20514;-87
2023/02/08 01:08:45;;;;;;;18.48;8.50;;;-2.70;99.90;;;;;;5082853;28;20052;-87
2023/02/08 01:11:17;;;;;;;16.35;8.38;;;-1.90;99.90;;;;;;5066526;28;20401;-86
2023/02/08 01:13:44;;;;;;;16.33;7.55;;;-2.70;99.90;;;;;;5066436;28;20049;-86
2023/02/08 01:16:16;;;;;;;16.42;8.38;;;-2.30;99.90;;;;;;5049681;28;20052;-86
2023/02/08 01:18:46;;;;;;;19.45;8.70;;;-2.70;99.90;;;;;;5083257;28;20124;-87
2023/02/08 01:21:15;;;;;;;16.20;7.35;;;-2.80;99.90;;;;;;5066874;28;20128;-86
2023/02/08 01:23:42;;;;;;;20.95;8.23;;;-2.80;99.90;;;;;;5066993;28;20346;-86
2023/02/08 01:26:11;;;;;;;14.27;7.60;;;-2.70;99.90;;;;;;5053601;28;20499;-87
2023/02/08 01:28:38;;;;;;;18.98;7.55;;;-2.80;99.90;;;;;;5049665;28;20042;-87
2023/02/08 01:31:14;;;;;;;15.60;8.02;;;-2.80;99.90;;;;;;5032993;28;20517;-86
2023/02/08 01:33:41;;;;;;;18.13;8.10;;;-2.80;99.90;;;;;;5049978;28;20048;-86
2023/02/08 01:36:08;;;;;;;17.42;9.13;;;-2.80;99.90;;;;;;5030642;28;20044;-86
2023/02/08 01:38:36;;;;;;;15.73;8.07;;;-2.80;99.90;;;;;;5049784;28;20045;-87
2023/02/08 01:41:04;;;;;;;19.90;9.27;;;-2.80;99.90;;;;;;5065776;28;20490;-86
2023/02/08 01:43:34;;;;;;;17.67;8.65;;;-2.80;99.90;;;;;;5073230;28;20048;-86
2023/02/08 01:46:01;;;;;;;18.27;8.40;;;-1.90;99.90;;;;;;5079287;28;20127;-87
2023/02/08 01:48:40;;;;;;;22.55;9.35;;;-2.00;99.90;;;;;;5055193;28;20064;-87
2023/02/08 01:51:12;;;;;;;17.40;8.82;;;-2.80;99.90;;;;;;5072801;28;20047;-87
2023/02/08 01:53:41;;;;;;;17.67;8.40;;;-2.80;99.90;;;;;;5072983;28;20072;-87
2023/02/08 01:56:16;;;;;;;18.73;8.35;;;-2.80;99.90;;;;;;5065497;28;20040;-87
2023/02/08 01:58:49;;;;;;;19.00;8.65;;;-2.00;99.90;;;;;;5109786;28;20043;-87
2023/02/08 02:01:16;;;;;;;19.38;8.98;;;-2.30;99.90;;;;;;5092969;28;20571;-85
2023/02/08 02:03:43;;;;;;;19.27;9.05;;;-2.80;99.90;;;;;;5097191;28;20047;-87
2023/02/08 02:06:14;;;;;;;18.42;8.73;;;-2.80;99.90;;;;;;5111588;28;20028;-86
2023/02/08 02:08:51;;;;;;;17.08;8.35;;;-2.30;99.90;;;;;;5096402;28;20032;-87
2023/02/08 02:11:18;;;;;;;20.73;9.45;;;-2.90;99.90;;;;;;5096934;28;20048;-86
2023/02/08 02:13:47;;;;;;;14.40;7.70;;;-2.20;99.90;;;;;;5097114;28;20480;-86
2023/02/08 02:16:13;;;;;;;17.45;8.27;;;-2.90;99.90;;;;;;5096751;28;20055;-87
2023/02/08 02:18:40;;;;;;;23.88;8.98;;;-2.90;99.90;;;;;;5079992;28;20044;-85
2023/02/08 02:21:22;;;;;;;24.77;8.25;;;-2.30;99.90;;;;;;5080023;28;20044;-87
2023/02/08 02:24:26;;;;;;;18.30;8.98;;;-2.90;99.90;;;;;;5096751;28;20052;-85
2023/02/08 02:27:30;;;;;;;17.40;7.90;;;-2.90;99.90;;;;;;5096689;28;20557;-87
2023/02/08 02:30:29;;;;;;;20.25;10.00;;;-2.90;99.90;;;;;;5112706;28;20039;-87
2023/02/08 02:33:05;;;;;;;18.75;8.90;;;-2.90;99.90;;;;;;5096115;28;20168;-87
2023/02/08 02:35:54;;;;;;;21.00;8.75;;;-2.90;99.90;;;;;;5096518;28;20040;-87
2023/02/08 02:38:45;;;;;;;18.88;8.10;;;-2.90;99.90;;;;;;5096419;28;20040;-87
2023/02/08 02:43:40;;;;;;;19.00;8.70;;;-3.00;99.90;;;;;;5095830;28;20131;-86
2023/02/08 02:44:15;;;;;;;18.63;9.10;;;-2.70;99.90;;;;;;5112989;28;20040;-87
2023/02/08 02:46:49;;;;;;;17.20;8.80;;;-3.00;99.90;;;;;;5113637;28;20040;-86
2023/02/08 02:49:25;;;;;;;17.92;8.85;;;-3.00;99.90;;;;;;5112592;28;20043;-87
2023/02/08 02:52:03;;;;;;;20.02;8.35;;;-3.00;99.90;;;;;;5113059;28;20075;-81
2023/02/08 02:54:40;;;;;;;21.10;9.77;;;-3.00;99.90;;;;;;5113043;28;20054;-87
2023/02/08 02:57:11;;;;;;;18.08;9.50;;;-3.00;99.90;;;;;;5112852;28;20507;-86
2023/02/08 02:59:39;;;;;;;19.33;9.68;;;-2.30;99.90;;;;;;5095213;28;20043;-87
2023/02/08 03:02:06;;;;;;;19.20;8.32;;;-2.50;99.90;;;;;;5075731;28;20083;-87
2023/02/08 03:04:32;;;;;;;17.50;8.30;;;-3.10;99.90;;;;;;5043139;28;20716;-86
2023/02/08 03:07:14;;;;;;;19.88;9.07;;;-3.10;99.90;;;;;;5092060;28;20037;-87
2023/02/08 03:09:58;;;;;;;23.42;8.32;;;-3.10;99.90;;;;;;5075903;28;20048;-87
2023/02/08 03:12:45;;;;;;;15.88;7.60;;;-3.10;99.90;;;;;;5075074;28;20036;-87
2023/02/08 03:15:38;;;;;;;20.42;9.18;;;-3.10;99.90;;;;;;5074909;28;20098;-85
2023/02/08 03:18:31;;;;;;;19.33;8.55;;;-3.10;99.90;;;;;;5091750;28;20094;-87
2023/02/08 03:21:16;;;;;;;21.48;8.90;;;-3.10;99.90;;;;;;5091534;28;20049;-87
2023/02/08 03:24:11;;;;;;;20.15;9.07;;;-3.10;99.90;;;;;;5090634;28;20051;-86
2023/02/08 03:27:00;;;;;;;18.58;8.60;;;-3.10;99.90;;;;;;5095024;28;20480;-87
2023/02/08 03:29:35;;;;;;;19.88;8.40;;;-3.10;99.90;;;;;;5095023;28;20381;-86
2023/02/08 03:32:13;;;;;;;17.35;8.50;;;-3.10;99.90;;;;;;5094983;28;20044;-87
2023/02/08 03:34:46;;;;;;;19.60;9.07;;;-3.10;99.90;;;;;;5094939;28;20044;-87
2023/02/08 03:37:27;;;;;;;21.60;8.90;;;-3.20;99.90;;;;;;5094559;28;20531;-87
2023/02/08 03:40:12;;;;;;;17.90;9.43;;;-3.10;99.90;;;;;;5095059;28;20594;-86
2023/02/08 03:42:40;;;;;;;20.55;10.73;;;-3.10;99.90;;;;;;5094132;28;20087;-86
2023/02/08 03:45:34;;;;;;;24.73;10.25;;;-3.10;99.90;;;;;;5041898;28;20041;-85
2023/02/08 03:48:04;;;;;;;20.70;10.38;;;-3.20;99.90;;;;;;5066359;28;20098;-87
2023/02/08 03:50:35;;;;;;;21.73;9.93;;;-3.20;99.90;;;;;;5074655;28;20052;-87
2023/02/08 03:53:04;;;;;;;20.85;9.43;;;-3.20;99.90;;;;;;5074920;28;20455;-87
2023/02/08 03:55:34;;;;;;;19.95;10.48;;;-3.20;99.90;;;;;;5094841;28;20044;-86
2023/02/08 03:58:11;;;;;;;24.05;9.85;;;-2.90;99.90;;;;;;5111149;28;20127;-83
2023/02/08 04:00:40;;;;;;;23.45;10.32;;;-2.70;99.90;;;;;;5110902;28;20052;-87
2023/02/08 04:03:16;;;;;;;21.02;9.65;;;-3.20;99.90;;;;;;5110763;28;20046;-86
2023/02/08 04:05:43;;;;;;;21.27;9.68;;;-2.50;99.90;;;;;;5094441;28;20036;-86
2023/02/08 04:08:10;;;;;;;21.38;9.65;;;-3.30;99.90;;;;;;5077409;28;20040;-88
2023/02/08 04:10:37;;;;;;;23.50;9.73;;;-2.30;99.90;;;;;;5077675;28;20044;-88
2023/02/08 04:13:03;;;;;;;23.27;9.75;;;-3.30;99.90;;;;;;5077384;28;20427;-84
2023/02/08 04:15:31;;;;;;;20.70;9.70;;;-3.30;99.90;;;;;;5093879;28;20126;-87
2023/02/08 04:17:57;;;;;;;19.83;9.50;;;-2.10;99.90;;;;;;5074536;28;20047;-87
2023/02/08 04:20:24;;;;;;;22.48;10.38;;;-3.30;99.90;;;;;;5073604;28;20040;-87
2023/02/08 04:22:51;;;;;;;23.10;9.70;;;-2.30;99.90;;;;;;5074079;28;20041;-87
2023/02/08 04:25:17;;;;;;;20.08;9.70;;;-2.50;99.90;;;;;;5047632;28;20047;-87
2023/02/08 04:27:44;;;;;;;19.95;10.25;;;-3.30;99.90;;;;;;5057131;28;20042;-86
2023/02/08 04:30:12;;;;;;;19.67;9.25;;;-3.30;99.90;;;;;;5057153;28;20048;-87
2023/02/08 04:32:39;;;;;;;21.35;9.57;;;-3.30;99.90;;;;;;5090552;28;20059;-87
2023/02/08 04:35:05;;;;;;;22.48;10.07;;;-3.40;99.90;;;;;;5078285;28;20043;-87
2023/02/08 04:37:32;;;;;;;27.35;9.90;;;-3.30;99.90;;;;;;5093697;28;20437;-86
2023/02/08 04:39:59;;;;;;;20.80;9.77;;;-2.10;99.90;;;;;;5077182;28;20105;-87
2023/02/08 04:42:26;;;;;;;18.95;9.15;;;-3.40;99.90;;;;;;5093377;28;20087;-87
2023/02/08 04:44:53;;;;;;;24.63;10.27;;;-2.40;99.90;;;;;;5077501;28;20035;-86
2023/02/08 04:47:19;;;;;;;20.55;9.05;;;-3.40;99.90;;;;;;5056570;28;20037;-87
2023/02/08 04:49:46;;;;;;;19.00;8.95;;;-2.90;99.90;;;;;;5041091;28;20036;-87
2023/02/08 04:52:13;;;;;;;23.17;10.20;;;-3.40;99.90;;;;;;5090026;28;20047;-87
2023/02/08 04:54:39;;;;;;;23.65;9.40;;;-3.40;99.90;;;;;;5057459;28;20090;-87
2023/02/08 04:57:06;;;;;;;24.52;10.30;;;-2.40;99.90;;;;;;5068932;28;20036;-87
2023/02/08 04:59:33;;;;;;;22.48;9.38;;;-3.40;99.90;;;;;;5040914;28;20044;-86
2023/02/08 05:01:59;;;;;;;21.38;10.05;;;-3.40;99.90;;;;;;5056748;28;20059;-87
2023/02/08 05:04:26;;;;;;;24.35;10.07;;;-2.40;99.90;;;;;;5073892;28;20489;-87
2023/02/08 05:06:53;;;;;;;21.45;9.80;;;-2.70;99.90;;;;;;5076827;28;20093;-87
2023/02/08 05:09:19;;;;;;;26.35;9.85;;;-3.40;99.90;;;;;;5093082;28;20074;-88
2023/02/08 05:11:46;;;;;;;23.63;10.38;;;-3.40;99.90;;;;;;5077168;28;20044;-88
2023/02/08 05:14:13;;;;;;;23.05;10.40;;;-3.00;99.90;;;;;;5076639;28;20130;-86
2023/02/08 05:16:40;;;;;;;23.67;10.52;;;-3.40;99.90;;;;;;5076920;28;20488;-87
2023/02/08 05:19:06;;;;;;;22.02;10.55;;;-3.40;99.90;;;;;;5084522;28;20517;-85
2023/02/08 05:21:33;;;;;;;21.65;10.38;;;-3.40;99.90;;;;;;5074103;28;20047;-86
2023/02/08 05:24:00;;;;;;;24.60;11.23;;;-3.40;99.90;;;;;;5109834;28;20032;-87
2023/02/08 05:26:26;;;;;;;25.58;11.23;;;-3.40;99.90;;;;;;5092049;28;20407;-87
2023/02/08 05:28:53;;;;;;;21.48;9.95;;;-3.50;99.90;;;;;;5040383;28;20170;-87
2023/02/08 05:31:22;;;;;;;21.65;9.90;;;-3.50;99.90;;;;;;5056546;28;20480;-87
2023/02/08 05:33:53;;;;;;;22.35;10.60;;;-3.50;99.90;;;;;;5057597;28;20143;-87
2023/02/08 05:36:22;;;;;;;25.92;11.00;;;-2.70;99.90;;;;;;5089458;28;20484;-88
2023/02/08 05:38:49;;;;;;;24.10;10.90;;;-3.50;99.90;;;;;;5072845;28;20237;-87
2023/02/08 05:41:16;;;;;;;22.73;9.43;;;-3.50;99.90;;;;;;5089233;28;20135;-83
2023/02/08 05:43:43;;;;;;;24.45;10.55;;;-3.50;99.90;;;;;;5073362;28;20044;-87
2023/02/08 05:46:10;;;;;;;25.77;11.35;;;-3.50;99.90;;;;;;5040219;28;20036;-87
2023/02/08 05:48:37;;;;;;;21.17;9.85;;;-2.80;99.90;;;;;;5073009;28;20044;-87
2023/02/08 05:51:04;;;;;;;23.08;10.80;;;-3.50;99.90;;;;;;5072876;28;20135;-87
2023/02/08 05:53:31;;;;;;;20.65;9.00;;;-3.50;99.90;;;;;;5055917;28;20036;-87
2023/02/08 05:55:58;;;;;;;18.17;9.13;;;-3.50;99.90;;;;;;5072748;28;20040;-87
2023/02/08 05:58:25;;;;;;;20.48;8.77;;;-3.60;99.90;;;;;;5079779;28;20093;-87
2023/02/08 06:00:52;;;;;;;21.05;9.15;;;-3.60;99.90;;;;;;5076226;28;20071;-87
2023/02/08 06:03:19;;;;;;;22.05;9.82;;;-3.60;99.90;;;;;;5076488;28;20534;-86
2023/02/08 06:05:45;;;;;;;21.17;9.80;;;-3.60;99.90;;;;;;5093063;28;20028;-86
2023/02/08 06:08:12;;;;;;;22.60;10.40;;;-3.60;99.90;;;;;;5077330;28;20102;-87
2023/02/08 06:10:39;;;;;;;24.08;9.93;;;-3.60;99.90;;;;;;5110382;28;20075;-87
2023/02/08 06:13:06;;;;;;;24.35;11.50;;;-3.60;99.90;;;;;;5092731;28;20101;-87
2023/02/08 06:15:32;;;;;;;18.65;9.48;;;-3.60;99.90;;;;;;5108916;28;20084;-87
2023/02/08 06:17:59;;;;;;;24.10;9.82;;;-3.60;99.90;;;;;;5076625;28;20412;-87
2023/02/08 06:20:26;;;;;;;21.45;9.63;;;-2.50;99.90;;;;;;5058623;28;20041;-87
2023/02/08 06:22:54;;;;;;;25.75;10.45;;;-3.70;99.90;;;;;;5093032;28;20480;-85
2023/02/08 06:25:20;;;;;;;21.50;10.00;;;-3.20;99.90;;;;;;5109155;28;20032;-87
2023/02/08 06:27:47;;;;;;;20.77;9.95;;;-3.60;99.90;;;;;;5075993;28;20059;-86
2023/02/08 06:30:14;;;;;;;22.05;10.10;;;-3.70;99.90;;;;;;5078741;28;20121;-86
2023/02/08 06:32:40;;;;;;;26.25;10.80;;;-3.70;99.90;;;;;;5087984;28;20039;-87
2023/02/08 06:35:07;;;;;;;28.15;11.80;;;-3.70;99.90;;;;;;5075874;28;20036;-86
2023/02/08 06:37:34;;;;;;;28.95;11.77;;;-3.70;99.90;;;;;;5108984;28;20040;-87
2023/02/08 06:40:01;;;;;;;32.80;12.23;;;-3.70;99.90;;;;;;5072118;28;20466;-87
2023/02/08 06:42:28;;;;;;;29.00;11.20;;;-3.70;99.90;;;;;;5089238;28;20056;-87
2023/02/08 06:44:56;;;;;;;21.92;10.63;;;-2.80;99.90;;;;;;5076084;28;20052;-87
2023/02/08 06:47:24;;;;;;;24.85;11.13;;;-3.70;99.90;;;;;;5092896;28;20507;-87
2023/02/08 06:49:51;;;;;;;25.23;11.32;;;-3.70;99.90;;;;;;5112635;28;20036;-87
2023/02/08 06:52:18;;;;;;;24.20;10.65;;;-3.70;99.90;;;;;;5116403;28;20040;-86
2023/02/08 06:54:48;;;;;;;26.48;11.43;;;-3.70;99.90;;;;;;5091616;28;20051;-88
2023/02/08 06:57:17;;;;;;;23.77;11.68;;;-3.70;99.90;;;;;;5063849;28;20037;-88
2023/02/08 06:59:44;;;;;;;24.00;10.15;;;-3.70;99.90;;;;;;5085369;28;20033;-86
2023/02/08 07:02:16;;;;;;;25.80;11.20;;;-3.70;99.90;;;;;;5067571;28;20048;-87
2023/02/08 07:04:44;;;;;;;24.33;10.80;;;-3.70;99.90;;;;;;5087219;28;20037;-87
2023/02/08 07:07:12;;;;;;;27.65;11.80;;;-3.70;99.90;;;;;;5062134;28;20139;-88
2023/02/08 07:09:39;;;;;;;22.88;10.77;;;-3.70;99.90;;;;;;5086046;28;20091;-87
2023/02/08 07:12:06;;;;;;;25.02;10.70;;;-2.70;99.90;;;;;;5067011;28;20076;-87
2023/02/08 07:14:35;;;;;;;23.55;11.60;;;-3.60;99.90;;;;;;5071205;28;20080;-85
2023/02/08 07:17:02;;;;;;;26.73;12.02;;;-3.70;99.90;;;;;;5073439;28;20119;-85
2023/02/08 07:19:30;;;;;;;24.50;11.18;;;-2.80;99.90;;;;;;5079637;28;20039;-87
2023/02/08 07:22:03;;;;;;;26.02;10.50;;;-3.60;99.90;;;;;;5055518;28;20486;-85
2023/02/08 07:24:30;;;;;;;29.70;12.18;;;-2.60;99.90;;;;;;5071341;28;20048;-85
2023/02/08 07:26:56;;;;;;;30.30;11.10;;;-3.50;99.90;;;;;;5055684;28;20041;-86
2023/02/08 07:29:23;;;;;;;26.88;12.65;;;-2.90;99.90;;;;;;5071611;28;20037;-87
2023/02/08 07:31:50;;;;;;;29.52;12.95;;;-2.70;99.90;;;;;;5055699;28;20045;-88
2023/02/08 07:34:20;;;;;;;26.83;12.35;;;-3.60;99.90;;;;;;5055264;28;20044;-86
2023/02/08 07:36:48;;;;;;;27.50;12.45;;;-3.60;99.90;;;;;;5061209;28;20048;-88
2023/02/08 07:39:15;;;;;;;28.17;11.45;;;-3.60;99.90;;;;;;5091511;28;20080;-88
2023/02/08 07:41:41;;;;;;;25.77;12.20;;;-2.70;99.90;;;;;;5075331;28;20098;-88
2023/02/08 07:44:08;;;;;;;28.88;12.05;;;-3.50;99.90;;;;;;5042054;28;20076;-87
2023/02/08 07:46:38;;;;;;;25.23;12.25;;;-3.00;99.90;;;;;;5058345;28;20496;-88
2023/02/08 07:49:05;;;;;;;24.88;11.93;;;-3.40;99.90;;;;;;5080850;28;20040;-88
2023/02/08 07:51:32;;;;;;;29.20;11.30;;;-3.40;99.90;;;;;;5091588;28;20045;-87
2023/02/08 07:53:58;;;;;;;29.05;11.98;;;-3.40;99.90;;;;;;5082989;28;20044;-87
2023/02/08 07:56:25;;;;;;;24.98;11.45;;;-3.30;99.90;;;;;;5077017;28;20428;-88
2023/02/08 07:58:52;;;;;;;27.48;12.23;;;-3.30;99.90;;;;;;5083116;28;20465;-88
2023/02/08 08:01:18;;;;;;;28.85;11.65;;;-3.30;99.90;;;;;;5102769;28;20416;-87
2023/02/08 08:03:50;;;;;;;33.80;12.10;;;-3.20;99.90;;;;;;5074775;28;20048;-88
2023/02/08 08:06:18;;;;;;;29.80;12.25;;;-3.10;99.90;;;;;;5091089;28;20032;-87
2023/02/08 08:08:48;;;;;;;25.15;11.43;;;-2.80;99.90;;;;;;5101204;28;20044;-88
2023/02/08 08:11:19;;;;;;;27.00;11.68;;;-3.10;99.90;;;;;;5081041;28;20040;-88
2023/02/08 08:13:46;;;;;;;28.23;11.85;;;-3.00;99.90;;;;;;5079857;28;20044;-88
2023/02/08 08:16:12;;;;;;;30.58;12.48;;;-3.00;99.90;;;;;;5091047;28;20067;-88
2023/02/08 08:18:39;;;;;;;22.17;11.00;;;-2.90;99.90;;;;;;5066036;28;20056;-88
2023/02/08 08:21:06;;;;;;;36.88;11.07;;;-2.30;99.90;;;;;;5082449;28;20795;-88
2023/02/08 08:23:35;;;;;;;24.73;11.55;;;-2.80;99.90;;;;;;5073122;28;20024;-87
2023/02/08 08:26:12;;;;;;;22.83;10.57;;;-2.80;99.90;;;;;;5082498;28;20467;-87
2023/02/08 08:28:40;;;;;;;25.98;11.25;;;-2.80;99.90;;;;;;5089987;28;20093;-86
2023/02/08 08:31:11;;;;;;;22.10;10.60;;;-2.70;99.90;;;;;;5083382;28;20036;-88
2023/02/08 08:33:38;;;;;;;33.08;12.70;;;-2.70;99.90;;;;;;5071238;28;20511;-87
2023/02/08 08:36:05;;;;;;;34.70;11.52;;;-2.60;99.90;;;;;;5046716;28;20040;-87
2023/02/08 08:38:31;;;;;;;30.85;12.30;;;-2.50;99.90;;;;;;5061017;28;20100;-86
2023/02/08 08:41:01;;;;;;;31.65;11.48;;;-1.20;99.90;;;;;;5080665;28;20135;-87
2023/02/08 08:43:27;;;;;;;30.90;12.30;;;-2.40;99.90;;;;;;5075009;28;20078;-87
2023/02/08 08:45:54;;;;;;;24.75;10.93;;;-2.30;99.90;;;;;;5063865;28;20123;-88
2023/02/08 08:48:21;;;;;;;32.38;12.85;;;-2.30;99.90;;;;;;5061968;28;20028;-89
2023/02/08 08:50:47;;;;;;;27.90;11.52;;;-2.20;99.90;;;;;;5063541;28;20101;-87
2023/02/08 08:53:15;;;;;;;28.30;11.48;;;-2.10;99.90;;;;;;5067799;28;20183;-88
2023/02/08 08:55:42;;;;;;;26.27;11.77;;;-1.60;99.90;;;;;;5069979;28;20048;-88
2023/02/08 08:58:08;;;;;;;27.05;11.27;;;-2.00;99.90;;;;;;5077478;28;20581;-88
2023/02/08 09:00:35;;;;;;;27.00;11.27;;;-1.00;99.90;;;;;;5110558;28;20067;-89
2023/02/08 09:03:01;;;;;;;25.77;11.48;;;-1.90;99.90;;;;;;5077201;28;20044;-89
2023/02/08 09:05:28;;;;;;;25.50;11.35;;;-1.30;99.90;;;;;;5077976;28;20047;-88
2023/02/08 09:07:55;;;;;;;22.08;10.43;;;-0.60;99.90;;;;;;5072370;28;20028;-89
2023/02/08 09:10:22;;;;;;;24.65;10.77;;;-0.40;99.90;;;;;;5099449;28;20044;-90
2023/02/08 09:12:48;;;;;;;29.65;11.77;;;-1.60;99.90;;;;;;5090469;28;20040;-89
2023/02/08 09:15:15;;;;;;;26.48;11.07;;;-0.40;99.90;;;;;;5057407;28;20044;-88
2023/02/08 09:17:43;;;;;;;29.67;12.63;;;-1.40;99.90;;;;;;5088587;28;20044;-87
2023/02/08 09:20:10;;;;;;;29.17;11.65;;;-0.80;99.90;;;;;;5059353;28;20094;-88
2023/02/08 09:22:36;;;;;;;29.58;12.32;;;-1.30;99.90;;;;;;5081406;28;20730;-88
2023/02/08 09:25:04;;;;;;;22.42;10.65;;;-1.20;99.90;;;;;;5075836;28;20067;-89
2023/02/08 09:27:31;;;;;;;26.48;10.75;;;-1.00;99.90;;;;;;5074310;28;20033;-90
2023/02/08 09:29:58;;;;;;;24.40;11.05;;;-0.60;99.90;;;;;;5088077;28;20043;-88
2023/02/08 09:32:25;;;;;;;26.05;11.05;;;-0.90;99.90;;;;;;5088480;28;20536;-89
2023/02/08 09:34:51;;;;;;;22.25;11.48;;;-0.80;99.90;;;;;;5073537;28;20041;-89
2023/02/08 09:37:18;;;;;;;24.58;10.98;;;-0.70;99.90;;;;;;5051340;28;20045;-90
2023/02/08 09:39:45;;;;;;;28.98;10.68;;;0.50;99.90;;;;;;5057014;28;20178;-88
2023/02/08 09:42:26;;;;;;;28.55;11.80;;;-0.70;99.90;;;;;;5056859;28;20392;-88
2023/02/08 09:45:36;;;;;;;26.00;10.63;;;-0.50;99.90;;;;;;5075397;28;20093;-87
2023/02/08 09:48:36;;;;;;;21.30;9.63;;;-0.50;99.90;;;;;;5085759;28;20050;-88
2023/02/08 09:51:25;;;;;;;23.60;10.85;;;-0.40;99.90;;;;;;5088729;28;20036;-89
2023/02/08 09:54:21;;;;;;;26.83;11.23;;;-0.40;99.90;;;;;;5075070;28;20122;-88
2023/02/08 09:56:49;;;;;;;22.70;9.60;;;-0.30;99.90;;;;;;5085763;28;20043;-85
2023/02/08 09:59:23;;;;;;;22.70;10.55;;;-0.20;99.90;;;;;;5093001;28;20810;-88
2023/02/08 10:01:52;;;;;;;24.38;10.50;;;-0.10;99.90;;;;;;5092811;28;20043;-87
2023/02/08 10:04:30;;;;;;;24.08;11.25;;;-0.10;99.90;;;;;;5093002;28;20127;-89
2023/02/08 10:06:57;;;;;;;26.20;10.70;;;0.00;99.90;;;;;;5092779;28;20075;-88
2023/02/08 10:09:26;;;;;;;23.65;10.73;;;1.00;99.90;;;;;;5077002;28;20032;-88
2023/02/08 10:11:58;;;;;;;22.55;9.80;;;0.20;99.90;;;;;;5086245;28;20566;-88
2023/02/08 10:14:32;;;;;;;24.75;10.52;;;0.30;99.90;;;;;;5078590;28;20123;-88
2023/02/08 10:17:34;;;;;;;25.98;10.93;;;0.40;99.90;;;;;;5105954;28;20079;-87
2023/02/08 10:20:25;;;;;;;28.92;10.98;;;0.50;99.90;;;;;;5092365;28;20044;-88
2023/02/08 10:22:57;;;;;;;22.45;10.52;;;0.60;99.90;;;;;;5080729;28;20048;-87
2023/02/08 10:25:55;;;;;;;22.42;10.18;;;0.70;99.90;;;;;;5093629;28;20123;-88
2023/02/08 10:28:38;;;;;;;20.00;9.65;;;0.80;99.90;;;;;;5076630;28;20101;-87
2023/02/08 10:31:10;;;;;;;22.50;9.88;;;0.90;99.90;;;;;;5075684;28;20405;-88
2023/02/08 10:34:12;;;;;;;24.67;10.80;;;0.90;99.90;;;;;;5089462;28;20110;-89
2023/02/08 10:36:40;;;;;;;21.70;8.70;;;1.00;99.90;;;;;;5082017;28;20139;-89
2023/02/08 10:39:16;;;;;;;19.90;8.70;;;1.90;99.90;;;;;;5091383;28;20126;-88
2023/02/08 10:41:44;;;;;;;23.05;9.82;;;1.20;99.90;;;;;;5096627;28;20164;-88
2023/02/08 10:44:55;;;;;;;20.02;9.02;;;2.00;99.90;;;;;;5111723;28;20134;-89
2023/02/08 10:47:48;;;;;;;21.50;8.85;;;1.30;99.90;;;;;;5094729;28;20047;-87
2023/02/08 10:50:32;;;;;;;21.13;8.70;;;1.50;99.90;;;;;;5095277;28;20139;-88
2023/02/08 10:52:58;;;;;;;20.20;8.98;;;1.50;99.90;;;;;;5095454;28;20040;-87
2023/02/08 10:55:26;;;;;;;21.27;9.90;;;1.60;99.90;;;;;;5080745;28;20051;-86
2023/02/08 10:57:58;;;;;;;21.85;9.27;;;1.70;99.90;;;;;;5097163;28;20432;-84
2023/02/08 11:00:32;;;;;;;20.58;8.73;;;1.80;99.90;;;;;;5100943;28;20127;-85
2023/02/08 11:03:07;;;;;;;19.35;8.48;;;1.90;99.90;;;;;;5075315;28;20055;-85
2023/02/08 11:05:36;;;;;;;16.27;7.82;;;2.00;99.90;;;;;;5092000;28;20040;-87
2023/02/08 11:08:11;;;;;;;18.85;8.18;;;2.10;99.90;;;;;;5058250;28;20032;-85
2023/02/08 11:10:39;;;;;;;26.08;8.65;;;2.80;99.90;;;;;;5074956;28;20048;-84
2023/02/08 11:13:19;;;;;;;21.77;8.43;;;2.80;99.90;;;;;;5097032;28;20032;-84
2023/02/08 11:15:52;;;;;;;14.98;8.05;;;2.30;99.90;;;;;;5094833;28;20497;-85
2023/02/08 11:18:23;;;;;;;20.83;8.13;;;2.60;99.90;;;;;;5074490;28;20505;-86
2023/02/08 11:20:59;;;;;;;18.88;8.80;;;2.50;99.90;;;;;;5077128;28;20036;-85
2023/02/08 11:23:29;;;;;;;15.18;7.22;;;2.50;99.90;;;;;;5107247;28;20130;-85
2023/02/08 11:26:17;;;;;;;16.60;8.02;;;2.60;99.90;;;;;;5081594;28;20119;-85
2023/02/08 11:28:57;;;;;;;17.42;7.82;;;3.20;99.90;;;;;;5076694;28;20174;-85
2023/02/08 11:31:24;;;;;;;15.05;7.32;;;2.70;99.90;;;;;;5081951;28;20033;-85
2023/02/08 11:34:02;;;;;;;20.73;7.97;;;2.70;99.90;;;;;;5063866;28;20495;-79
2023/02/08 11:36:31;;;;;;;20.80;8.43;;;2.80;99.90;;;;;;5081869;28;20421;-80
2023/02/08 11:39:02;;;;;;;15.10;7.35;;;2.80;99.90;;;;;;5082312;28;20072;-83
2023/02/08 11:41:29;;;;;;;18.08;8.07;;;2.80;99.90;;;;;;5104144;28;20037;-81
2023/02/08 11:44:05;;;;;;;14.38;7.63;;;2.90;99.90;;;;;;5051237;28;20061;-82
2023/02/08 11:46:35;;;;;;;;;;;3.00;99.90;;;;;;5050115;28;20049;-80
2023/02/08 11:49:02;;;;;;;16.77;7.15;;;3.00;99.90;;;;;;5065823;28;19921;-79
2023/02/08 11:51:35;;;;;;;18.20;7.63;;;3.10;99.90;;;;;;5049875;28;20050;-80
2023/02/08 11:54:04;;;;;;;16.65;7.22;;;3.10;99.90;;;;;;5066083;28;20052;-80
2023/02/08 11:56:33;;;;;;;17.85;8.13;;;3.10;99.90;;;;;;5052982;28;20504;-80
2023/02/08 11:59:17;;;;;;;13.60;6.80;;;3.20;99.90;;;;;;5086169;28;20067;-80
2023/02/08 12:01:44;;;;;;;15.15;6.68;;;3.20;99.90;;;;;;5086396;28;20090;-78
2023/02/08 12:04:13;;;;;;;16.65;6.93;;;3.20;99.90;;;;;;5049370;28;20128;-80
2023/02/08 12:07:01;;;;;;;15.02;7.32;;;3.30;99.90;;;;;;5049855;28;20092;-80
2023/02/08 12:09:40;;;;;;;15.68;7.00;;;3.30;99.90;;;;;;5066005;28;20041;-80
2023/02/08 12:12:38;;;;;;;15.00;7.20;;;3.40;99.90;;;;;;5066079;28;20493;-80
2023/02/08 12:15:11;;;;;;;17.40;7.70;;;3.40;99.90;;;;;;5049752;28;20107;-80
2023/02/08 12:17:47;;;;;;;16.35;6.80;;;3.40;99.90;;;;;;5049781;28;20124;-81
2023/02/08 12:20:21;;;;;;;13.27;5.93;;;3.40;99.90;;;;;;5057386;28;20045;-80
2023/02/08 12:23:06;;;;;;;14.73;5.95;;;3.50;99.90;;;;;;5049277;28;20164;-80
2023/02/08 12:26:02;;;;;;;17.08;7.65;;;3.50;99.90;;;;;;5069359;28;20548;-80
2023/02/08 12:28:55;;;;;;;13.65;6.43;;;3.50;99.90;;;;;;5082271;28;20090;-80
2023/02/08 12:31:44;;;;;;;14.98;6.18;;;3.60;99.90;;;;;;5068938;28;20040;-80
2023/02/08 12:34:19;;;;;;;14.38;6.70;;;3.60;99.90;;;;;;5056637;28;20053;-80
2023/02/08 12:36:46;;;;;;;14.68;6.38;;;3.70;99.90;;;;;;5049202;28;20091;-81
2023/02/08 12:42:51;;;;;;;12.18;5.95;;;3.80;99.90;;;;;;5069023;28;20045;-81
2023/02/08 12:45:18;;;;;;;12.40;6.28;;;3.80;99.90;;;;;;5071522;28;20500;-81
2023/02/08 12:48:39;;;;;;;12.68;6.18;;;3.80;99.90;;;;;;5089613;28;20044;-81
2023/02/08 12:51:30;;;;;;;15.20;5.88;;;3.80;99.90;;;;;;4989330;28;20126;-81
2023/02/08 12:54:01;;;;;;;12.30;5.72;;;3.80;99.90;;;;;;4973241;28;20137;-81
2023/02/08 12:56:41;;;;;;;11.52;5.97;;;3.90;99.90;;;;;;5083549;28;20107;-81
2023/02/08 12:59:20;;;;;;;10.35;5.22;;;3.90;99.90;;;;;;5109498;28;20051;-81
2023/02/08 13:01:52;;;;;;;14.48;5.15;;;3.90;99.90;;;;;;5109130;28;20090;-80